Time;durP1;ratioP1;P1;durP2;ratioP2;P2;SDS_P1;SDS_P2;PMS_P1;PMS_P2;Temp;Humidity;BMP_temperature;BMP_pressure;BME280_temperature;BME280_humidity;BME280_pressure;Samples;Min_cycle;Max_cycle;Signal;HPM_P1;HPM_P2
2023/07/05 00:02:08;;;;;;;3.70;1.98;;;;;;;18.87;62.35;95249.84;4978895;28;20191;-77
2023/07/05 00:04:34;;;;;;;4.05;2.05;;;;;;;18.91;61.89;95234.47;4981706;28;20560;-77
2023/07/05 00:06:59;;;;;;;3.10;2.30;;;;;;;18.83;62.37;95240.75;4970657;28;20295;-77
2023/07/05 00:09:25;;;;;;;4.05;2.10;;;;;;;18.92;61.89;95229.00;4964557;28;20263;-76
2023/07/05 00:11:50;;;;;;;2.47;1.85;;;;;;;18.95;61.73;95233.03;4970906;28;20192;-77
2023/07/05 00:14:16;;;;;;;3.53;2.20;;;;;;;18.82;62.39;95239.16;4958734;28;20188;-77
2023/07/05 00:16:41;;;;;;;2.85;1.95;;;;;;;18.75;62.51;95230.47;4948327;28;20215;-77
2023/07/05 00:19:08;;;;;;;3.25;2.20;;;;;;;18.78;62.49;95230.03;4986793;28;20256;-77
2023/07/05 00:21:34;;;;;;;2.50;2.00;;;;;;;18.69;62.44;95220.75;4977016;28;20243;-76
2023/07/05 00:23:59;;;;;;;2.83;2.00;;;;;;;18.77;62.05;95228.41;4952348;28;20224;-77
2023/07/05 00:26:25;;;;;;;2.63;2.08;;;;;;;18.61;62.66;95226.19;4955040;28;20780;-76
2023/07/05 00:28:50;;;;;;;3.97;2.17;;;;;;;18.64;62.85;95218.72;4963124;28;20655;-78
2023/07/05 00:31:16;;;;;;;2.35;1.90;;;;;;;18.58;63.17;95219.53;4963038;28;20244;-77
2023/07/05 00:33:41;;;;;;;2.08;1.92;;;;;;;18.59;62.95;95218.50;4952483;28;20273;-77
2023/07/05 00:36:07;;;;;;;3.33;2.03;;;;;;;18.54;63.17;95217.50;4965206;28;20263;-77
2023/07/05 00:38:32;;;;;;;5.32;2.22;;;;;;;18.46;63.42;95209.81;4953613;28;20189;-76
2023/07/05 00:40:57;;;;;;;2.25;1.90;;;;;;;18.66;62.69;95206.19;4964057;28;20611;-77
2023/07/05 00:43:22;;;;;;;3.00;1.90;;;;;;;18.56;63.38;95197.09;4976061;28;20611;-76
2023/07/05 00:45:59;;;;;;;3.05;1.92;;;;;;;18.56;63.01;95192.63;4938504;28;20758;-77
2023/07/05 00:48:39;;;;;;;2.50;1.90;;;;;;;18.51;63.04;95184.53;4963051;28;20239;-77
2023/07/05 00:51:30;;;;;;;3.80;2.33;;;;;;;18.59;62.97;95175.63;4953222;28;20554;-76
2023/07/05 00:53:59;;;;;;;4.10;2.10;;;;;;;18.55;63.17;95177.88;4965258;28;20206;-77
2023/07/05 00:56:52;;;;;;;2.25;2.05;;;;;;;18.43;63.90;95182.13;4955441;28;20200;-77
2023/07/05 00:59:18;;;;;;;2.10;1.90;;;;;;;18.51;63.41;95194.25;4945011;28;20196;-77
2023/07/05 01:01:44;;;;;;;3.92;2.10;;;;;;;18.32;64.33;95212.47;4976740;28;20185;-77
2023/07/05 01:04:09;;;;;;;2.28;1.92;;;;;;;18.17;64.77;95211.88;4970938;28;20198;-77
2023/07/05 01:06:35;;;;;;;4.50;2.00;;;;;;;18.50;63.54;95205.78;4947157;28;20201;-77
2023/07/05 01:09:01;;;;;;;2.72;2.25;;;;;;;18.27;64.40;95196.50;4967126;28;20271;-77
2023/07/05 01:11:49;;;;;;;4.28;1.77;;;;;;;18.44;64.86;95188.19;4970003;28;20188;-77
2023/07/05 01:14:17;;;;;;;4.38;2.00;;;;;;;18.42;66.63;95190.22;4962836;28;20239;-77
2023/07/05 01:16:54;;;;;;;2.63;2.10;;;;;;;18.33;68.85;95193.06;4958364;28;20225;-77
2023/07/05 01:19:42;;;;;;;3.15;1.80;;;;;;;18.20;69.66;95203.59;4977794;28;20244;-79
2023/07/05 01:22:12;;;;;;;2.95;1.85;;;;;;;18.14;70.34;95219.38;4978834;28;20256;-77
2023/07/05 01:24:55;;;;;;;5.32;1.98;;;;;;;18.23;69.87;95216.31;4959005;28;20208;-75
2023/07/05 01:27:45;;;;;;;3.03;2.08;;;;;;;18.50;69.04;95211.03;4984138;28;20232;-78
2023/07/05 01:30:18;;;;;;;2.15;1.88;;;;;;;18.53;69.08;95216.69;4971338;28;20185;-78
2023/07/05 01:32:59;;;;;;;3.75;2.10;;;;;;;18.51;69.12;95226.63;4962728;28;20200;-78
2023/07/05 01:35:33;;;;;;;2.45;2.03;;;;;;;18.28;68.91;95223.59;4969321;28;20244;-77
2023/07/05 01:37:58;;;;;;;2.08;1.85;;;;;;;18.38;69.35;95226.63;4971023;28;20647;-78
2023/07/05 01:40:23;;;;;;;3.25;2.00;;;;;;;18.26;69.60;95228.25;4943682;28;20227;-78
2023/07/05 01:42:51;;;;;;;3.00;1.88;;;;;;;18.23;69.48;95221.59;4970466;28;20201;-77
2023/07/05 01:45:18;;;;;;;2.90;2.13;;;;;;;18.15;69.73;95227.03;4947258;28;20204;-78
2023/07/05 01:48:14;;;;;;;3.17;2.25;;;;;;;18.12;71.81;95222.19;4982787;28;20242;-78
2023/07/05 01:50:43;;;;;;;2.97;2.15;;;;;;;18.05;71.97;95237.16;4950975;28;20197;-77
2023/07/05 01:53:13;;;;;;;2.78;2.00;;;;;;;17.97;72.12;95235.53;4978786;28;20540;-78
2023/07/05 01:55:54;;;;;;;2.20;2.00;;;;;;;18.00;71.92;95245.63;4977516;28;20212;-77
2023/07/05 01:58:22;;;;;;;5.00;2.10;;;;;;;18.00;72.35;95250.88;4967983;28;20195;-77
2023/07/05 02:00:49;;;;;;;4.60;1.90;;;;;;;17.87;73.07;95244.81;4973669;28;20177;-77
2023/07/05 02:03:17;;;;;;;2.88;1.70;;;;;;;17.87;73.80;95248.25;4974936;28;20193;-77
2023/07/05 02:05:43;;;;;;;3.03;1.98;;;;;;;17.95;73.44;95253.31;4983494;28;20732;-76
2023/07/05 02:08:08;;;;;;;4.22;2.30;;;;;;;18.02;73.27;95254.13;4972380;28;20193;-77
2023/07/05 02:10:34;;;;;;;2.45;2.05;;;;;;;18.04;73.23;95264.44;4983496;28;20193;-77
2023/07/05 02:13:03;;;;;;;4.32;2.42;;;;;;;18.04;73.70;95257.34;4958643;28;20196;-77
2023/07/05 02:15:29;;;;;;;2.38;2.08;;;;;;;17.85;75.25;95241.56;4973192;28;20223;-77
2023/07/05 02:17:54;;;;;;;4.60;2.20;;;;;;;17.93;74.77;95241.34;4981119;28;20189;-77
2023/07/05 02:20:19;;;;;;;3.95;2.10;;;;;;;17.91;75.73;95232.88;4960158;28;20193;-77
2023/07/05 02:22:45;;;;;;;4.53;2.28;;;;;;;17.90;76.47;95223.38;4976462;28;20196;-77
2023/07/05 02:25:10;;;;;;;2.88;1.95;;;;;;;17.89;76.86;95213.88;4967508;28;20585;-77
2023/07/05 02:27:35;;;;;;;2.17;1.90;;;;;;;17.87;76.72;95223.78;4972026;28;20238;-78
2023/07/05 02:30:01;;;;;;;4.97;2.25;;;;;;;17.89;76.26;95229.66;4971323;28;20324;-77
2023/07/05 02:32:26;;;;;;;4.43;2.15;;;;;;;17.72;76.28;95222.16;4971105;28;20200;-76
2023/07/05 02:34:52;;;;;;;2.60;1.85;;;;;;;17.75;75.50;95216.47;4968797;28;20204;-77
2023/07/05 02:37:17;;;;;;;2.88;1.88;;;;;;;17.78;75.26;95210.84;4980279;28;20180;-77
2023/07/05 02:39:43;;;;;;;1.73;1.63;;;;;;;17.70;75.14;95213.66;4978690;28;20195;-77
2023/07/05 02:42:08;;;;;;;2.38;1.80;;;;;;;17.71;75.23;95206.59;4962744;28;20220;-77
2023/07/05 02:44:33;;;;;;;3.83;2.13;;;;;;;17.76;74.67;95212.88;4967069;28;20207;-77
2023/07/05 02:46:59;;;;;;;3.65;1.90;;;;;;;17.69;75.34;95211.22;4972705;28;20213;-78
2023/07/05 02:49:24;;;;;;;2.78;1.85;;;;;;;17.69;75.55;95201.50;4979704;28;20661;-77
2023/07/05 02:51:50;;;;;;;2.53;1.90;;;;;;;17.53;75.68;95210.56;4972891;28;20220;-77
2023/07/05 02:54:16;;;;;;;2.67;2.00;;;;;;;17.35;76.19;95215.56;4953515;28;20674;-76
2023/07/05 02:56:41;;;;;;;3.42;1.95;;;;;;;17.44;76.03;95213.56;4962133;28;20292;-77
2023/07/05 02:59:06;;;;;;;2.03;1.80;;;;;;;17.32;75.47;95209.91;4972431;28;20556;-77
2023/07/05 03:01:32;;;;;;;2.60;1.80;;;;;;;17.22;75.75;95208.44;4964825;28;20910;-77
2023/07/05 03:03:57;;;;;;;2.08;1.58;;;;;;;17.26;75.84;95216.75;4957880;28;20225;-77
2023/07/05 03:06:22;;;;;;;4.15;2.10;;;;;;;17.19;75.93;95216.72;4971253;28;20235;-77
2023/07/05 03:08:48;;;;;;;3.58;1.90;;;;;;;17.17;75.63;95212.69;4962657;28;20184;-77
2023/07/05 03:11:13;;;;;;;1.90;1.40;;;;;;;17.22;75.57;95205.81;4988740;28;20199;-77
2023/07/05 03:13:39;;;;;;;1.83;1.70;;;;;;;17.16;75.57;95211.88;4964941;28;20181;-76
2023/07/05 03:16:05;;;;;;;3.30;1.83;;;;;;;17.20;75.70;95215.72;4965140;28;20596;-76
2023/07/05 03:18:31;;;;;;;2.40;1.85;;;;;;;17.01;76.32;95215.63;4986530;28;20231;-76
2023/07/05 03:20:56;;;;;;;3.80;2.10;;;;;;;17.22;75.12;95218.94;4950625;28;20560;-76
2023/07/05 03:23:22;;;;;;;2.78;1.60;;;;;;;17.21;75.21;95209.44;4960488;28;20193;-77
2023/07/05 03:25:56;;;;;;;3.45;1.52;;;;;;;17.26;75.28;95207.06;4971705;28;20210;-77
2023/07/05 03:28:21;;;;;;;2.20;1.83;;;;;;;17.24;74.65;95211.72;4962051;28;20195;-77
2023/07/05 03:31:05;;;;;;;4.45;2.17;;;;;;;17.18;75.42;95217.72;4956002;28;20574;-76
2023/07/05 03:33:31;;;;;;;2.05;1.67;;;;;;;17.25;75.15;95215.13;4980691;28;21037;-77
2023/07/05 03:36:10;;;;;;;1.63;1.40;;;;;;;17.32;74.30;95215.16;4968183;28;20201;-76
2023/07/05 03:38:35;;;;;;;3.20;2.00;;;;;;;17.20;74.86;95223.59;4969985;28;20188;-77
2023/07/05 03:41:09;;;;;;;2.35;2.00;;;;;;;17.25;74.58;95221.19;4963536;28;20242;-77
2023/07/05 03:43:35;;;;;;;2.50;1.80;;;;;;;17.26;74.67;95233.31;4983765;28;20185;-77
2023/07/05 03:46:03;;;;;;;3.33;1.80;;;;;;;17.33;74.33;95230.72;4954224;28;20586;-79
2023/07/05 03:48:30;;;;;;;2.97;1.90;;;;;;;17.27;74.78;95229.66;4959382;28;20181;-77
2023/07/05 03:50:56;;;;;;;2.92;1.70;;;;;;;17.33;74.96;95232.53;4971144;28;20187;-77
2023/07/05 03:53:21;;;;;;;2.00;1.38;;;;;;;17.39;74.13;95232.53;4963525;28;20255;-77
2023/07/05 03:55:47;;;;;;;1.95;1.85;;;;;;;17.31;75.06;95231.88;4985590;28;20664;-77
2023/07/05 03:58:12;;;;;;;3.40;2.03;;;;;;;17.27;74.93;95237.53;4968230;28;20215;-77
2023/07/05 04:00:37;;;;;;;2.10;1.60;;;;;;;17.47;74.15;95229.72;4961601;28;20551;-78
2023/07/05 04:03:03;;;;;;;3.90;1.80;;;;;;;17.32;75.34;95236.16;4971820;28;20670;-77
2023/07/05 04:05:28;;;;;;;2.25;2.05;;;;;;;17.31;75.47;95240.56;4967922;28;20212;-77
2023/07/05 04:07:53;;;;;;;1.75;1.52;;;;;;;17.37;75.34;95237.16;4967307;28;20203;-79
2023/07/05 04:10:18;;;;;;;1.55;1.45;;;;;;;17.39;75.77;95234.34;4970041;28;20185;-77
2023/07/05 04:12:44;;;;;;;2.72;1.67;;;;;;;17.35;76.29;95231.31;4963504;28;20185;-78
2023/07/05 04:15:10;;;;;;;2.78;2.10;;;;;;;17.46;76.22;95214.19;4963804;28;20272;-77
2023/07/05 04:17:35;;;;;;;3.03;1.80;;;;;;;17.36;76.62;95219.81;4973284;28;20932;-76
2023/07/05 04:20:02;;;;;;;4.05;2.13;;;;;;;17.15;77.36;95218.13;4965110;28;20180;-77
2023/07/05 04:22:30;;;;;;;2.15;1.63;;;;;;;17.35;76.61;95222.63;4970164;28;20196;-78
2023/07/05 04:24:55;;;;;;;2.72;2.38;;;;;;;17.39;76.97;95224.66;4965450;28;20209;-77
2023/07/05 04:27:21;;;;;;;3.65;2.08;;;;;;;17.27;77.59;95221.00;4954960;28;20544;-77
2023/07/05 04:29:46;;;;;;;2.10;1.60;;;;;;;17.47;76.63;95208.72;4926267;28;20192;-77
2023/07/05 04:32:11;;;;;;;1.75;1.65;;;;;;;17.55;76.74;95211.16;4966706;28;20189;-77
2023/07/05 04:34:40;;;;;;;1.92;1.60;;;;;;;18.27;73.41;95214.91;4955320;28;20272;-77
2023/07/05 04:37:05;;;;;;;2.10;1.65;;;;;;;19.90;67.47;95223.50;4970511;28;20185;-87
2023/07/05 04:39:31;;;;;;;2.30;1.55;;;;;;;22.02;57.20;95213.31;4965512;28;20196;-88
2023/07/05 04:41:57;;;;;;;2.95;1.77;;;;;;;23.73;52.48;95212.03;4966817;28;20208;-87
2023/07/05 04:44:22;;;;;;;1.77;1.38;;;;;;;24.57;48.38;95206.84;4957614;28;20293;-86
2023/07/05 04:46:47;;;;;;;2.38;1.30;;;;;;;26.22;44.81;95213.84;4973476;28;20256;-86
2023/07/05 04:49:13;;;;;;;1.90;1.55;;;;;;;27.18;42.31;95208.41;4969849;28;20193;-86
2023/07/05 04:51:38;;;;;;;2.08;1.60;;;;;;;27.81;40.23;95208.38;4974433;28;20184;-87
2023/07/05 04:54:03;;;;;;;1.52;1.38;;;;;;;26.87;41.99;95193.31;4951434;28;20250;-87
2023/07/05 04:56:29;;;;;;;2.58;1.75;;;;;;;25.68;44.52;95185.38;4990220;28;20287;-85
2023/07/05 04:58:56;;;;;;;3.25;1.80;;;;;;;23.40;49.83;95186.22;4975236;28;20211;-87
2023/07/05 05:01:22;;;;;;;1.75;1.40;;;;;;;24.39;47.99;95196.47;4969379;28;20192;-87
2023/07/05 05:03:47;;;;;;;2.05;1.50;;;;;;;25.97;44.46;95195.78;4959546;28;20253;-86
2023/07/05 05:06:12;;;;;;;3.40;1.83;;;;;;;26.76;42.80;95193.22;4967242;28;20224;-86
2023/07/05 05:08:38;;;;;;;2.22;1.42;;;;;;;26.99;42.22;95197.34;4978166;28;20192;-85
2023/07/05 05:11:04;;;;;;;2.65;1.60;;;;;;;27.90;40.21;95196.91;4968571;28;20818;-86
2023/07/05 05:13:31;;;;;;;2.20;1.70;;;;;;;28.12;39.03;95187.88;4969396;28;20172;-86
2023/07/05 05:15:57;;;;;;;2.53;1.80;;;;;;;27.81;40.31;95189.69;4954844;28;20219;-88
2023/07/05 05:18:23;;;;;;;3.00;1.63;;;;;;;28.89;37.57;95197.47;4995382;28;20188;-85
2023/07/05 05:20:49;;;;;;;3.17;1.83;;;;;;;28.35;38.87;95198.03;4943559;29;20228;-86
2023/07/05 05:23:15;;;;;;;4.45;1.80;;;;;;;26.37;42.16;95211.31;4968477;28;20201;-80
2023/07/05 05:25:44;;;;;;;2.15;1.70;;;;;;;26.14;43.65;95222.28;4991186;28;20208;-87
2023/07/05 05:28:10;;;;;;;5.32;1.73;;;;;;;24.16;48.51;95234.53;4951906;28;20180;-87
2023/07/05 05:30:35;;;;;;;2.00;1.65;;;;;;;22.79;52.50;95245.03;4972410;28;20689;-88
2023/07/05 05:33:02;;;;;;;3.00;1.73;;;;;;;21.20;60.22;95263.97;4978510;28;20268;-90
2023/07/05 05:35:29;;;;;;;2.92;2.38;;;;;;;21.11;63.48;95281.09;4949089;28;20196;-88
2023/07/05 05:37:55;;;;;;;4.70;2.45;;;;;;;20.67;67.53;95294.53;4960166;28;20197;-86
2023/07/05 05:40:20;;;;;;;3.22;1.75;;;;;;;19.19;71.55;95286.81;4996106;28;20340;-87
2023/07/05 05:42:45;;;;;;;4.80;2.17;;;;;;;18.94;74.56;95265.63;4986987;28;20238;-87
2023/07/05 05:45:11;;;;;;;3.35;1.63;;;;;;;18.85;74.86;95270.28;4928978;29;20209;-87
2023/07/05 05:47:36;;;;;;;1.85;1.63;;;;;;;18.34;76.86;95276.16;4962199;28;20206;-87
2023/07/05 05:50:02;;;;;;;2.03;1.58;;;;;;;18.31;76.91;95275.78;4966630;28;20219;-88
2023/07/05 05:52:27;;;;;;;2.75;1.58;;;;;;;17.97;79.37;95267.03;4953812;28;20189;-87
2023/07/05 05:54:53;;;;;;;2.67;1.10;;;;;;;17.96;79.15;95256.75;4959813;28;20203;-88
2023/07/05 05:57:18;;;;;;;3.70;1.60;;;;;;;17.58;80.07;95257.25;4947950;28;20164;-87
2023/07/05 05:59:43;;;;;;;3.00;1.52;;;;;;;17.66;80.87;95257.03;4962506;28;20188;-87
2023/07/05 06:02:12;;;;;;;3.28;1.50;;;;;;;17.60;79.74;95259.66;4983658;28;20639;-85
2023/07/05 06:04:37;;;;;;;1.58;1.30;;;;;;;17.54;80.99;95262.06;4977277;28;20212;-79
2023/07/05 06:07:03;;;;;;;2.72;1.63;;;;;;;17.64;80.66;95277.44;4982453;28;20273;-86
2023/07/05 06:09:28;;;;;;;3.75;1.40;;;;;;;17.58;79.90;95262.50;4947900;28;20180;-89
2023/07/05 06:11:57;;;;;;;1.48;1.38;;;;;;;17.78;79.30;95268.63;4935732;28;20189;-86
2023/07/05 06:14:24;;;;;;;2.05;1.83;;;;;;;18.76;75.00;95273.34;4952620;29;20571;-86
2023/07/05 06:16:49;;;;;;;4.05;1.80;;;;;;;19.13;72.28;95292.91;4956795;28;20196;-85
2023/07/05 06:19:14;;;;;;;3.53;1.50;;;;;;;19.44;71.58;95303.53;4980001;28;20184;-85
2023/07/05 06:21:41;;;;;;;2.35;1.80;;;;;;;19.35;71.38;95302.16;4956442;28;20271;-85
2023/07/05 06:24:06;;;;;;;2.13;1.60;;;;;;;19.10;71.70;95304.66;4982665;28;20180;-84
2023/07/05 06:26:32;;;;;;;4.82;1.58;;;;;;;18.46;73.45;95312.34;4970511;28;20269;-84
2023/07/05 06:28:57;;;;;;;2.33;1.80;;;;;;;18.32;74.92;95317.63;4946815;28;20672;-85
2023/07/05 06:31:22;;;;;;;3.40;1.38;;;;;;;17.96;75.76;95319.78;4980030;28;20191;-88
2023/07/05 06:33:48;;;;;;;2.33;1.50;;;;;;;17.65;78.54;95310.56;4963830;28;20650;-84
2023/07/05 06:36:13;;;;;;;4.15;1.65;;;;;;;17.51;79.14;95319.41;4969363;28;20191;-87
2023/07/05 06:38:39;;;;;;;2.40;1.70;;;;;;;17.64;78.54;95323.91;4955024;28;20185;-84
2023/07/05 06:41:05;;;;;;;2.80;1.63;;;;;;;17.46;79.63;95327.06;4956473;28;20280;-84
2023/07/05 06:43:30;;;;;;;1.77;1.67;;;;;;;17.45;80.51;95335.94;4964599;28;20191;-85
2023/07/05 06:45:56;;;;;;;2.15;1.73;;;;;;;17.34;81.52;95341.75;4994578;28;20231;-85
2023/07/05 06:48:22;;;;;;;1.98;1.52;;;;;;;17.39;81.95;95347.22;4975689;28;20188;-88
2023/07/05 06:50:52;;;;;;;1.92;1.73;;;;;;;17.29;82.26;95350.19;4952469;28;20189;-88
2023/07/05 06:53:18;;;;;;;2.22;1.60;;;;;;;17.26;83.65;95348.75;4976541;28;20184;-87
2023/07/05 06:55:46;;;;;;;4.53;1.80;;;;;;;17.53;82.88;95359.41;4984606;28;20217;-84
2023/07/05 06:58:12;;;;;;;1.20;1.10;;;;;;;17.64;82.05;95356.22;4949553;29;20196;-86
2023/07/05 07:00:37;;;;;;;2.08;1.50;;;;;;;17.81;81.94;95352.28;4977069;28;20669;-84
2023/07/05 07:03:05;;;;;;;3.33;1.42;;;;;;;17.75;81.91;95360.94;4973515;28;20285;-84
2023/07/05 07:05:31;;;;;;;1.75;1.48;;;;;;;17.73;81.21;95356.88;4987967;28;20203;-85
2023/07/05 07:07:56;;;;;;;3.08;1.70;;;;;;;17.95;82.17;95358.38;4960802;28;20185;-82
2023/07/05 07:10:21;;;;;;;2.45;1.75;;;;;;;17.97;81.27;95356.38;4973671;28;20189;-83
2023/07/05 07:12:47;;;;;;;2.00;1.80;;;;;;;18.00;80.92;95363.03;4972102;28;20218;-82
2023/07/05 07:15:12;;;;;;;2.85;1.83;;;;;;;18.19;77.91;95364.09;4982068;28;20229;-80
2023/07/05 07:17:37;;;;;;;3.92;2.17;;;;;;;18.59;75.40;95363.16;4983695;28;20209;-83
2023/07/05 07:20:03;;;;;;;2.85;2.17;;;;;;;18.83;73.43;95374.13;4957113;28;20216;-82
2023/07/05 07:22:28;;;;;;;5.10;2.08;;;;;;;18.94;72.62;95373.50;4966560;28;20185;-82
2023/07/05 07:24:54;;;;;;;3.08;2.00;;;;;;;18.66;73.28;95386.84;4952924;28;20586;-82
2023/07/05 07:27:19;;;;;;;2.53;2.30;;;;;;;18.72;73.44;95383.41;4943846;28;20196;-82
2023/07/05 07:29:45;;;;;;;3.80;2.60;;;;;;;18.50;74.61;95395.09;4987700;28;20662;-83
2023/07/05 07:32:10;;;;;;;2.90;2.65;;;;;;;18.31;75.64;95379.09;4972568;28;20259;-82
2023/07/05 07:34:36;;;;;;;2.80;2.53;;;;;;;18.34;75.33;95376.06;4933100;28;20208;-82
2023/07/05 07:37:01;;;;;;;3.58;3.00;;;;;;;18.79;74.00;95386.84;4940437;28;20188;-82
2023/07/05 07:39:29;;;;;;;4.20;3.22;;;;;;;19.35;69.72;95380.34;4981730;28;20677;-83
2023/07/05 07:41:55;;;;;;;4.60;2.67;;;;;;;19.81;67.85;95390.75;4981072;28;20184;-83
2023/07/05 07:44:20;;;;;;;4.20;3.08;;;;;;;20.61;63.63;95413.09;4952770;28;20195;-83
2023/07/05 07:46:45;;;;;;;3.78;2.83;;;;;;;20.55;62.98;95405.22;4986114;28;20208;-82
2023/07/05 07:49:11;;;;;;;4.60;2.92;;;;;;;20.14;63.96;95406.41;4959020;28;20184;-77
2023/07/05 07:51:38;;;;;;;3.75;3.17;;;;;;;20.26;63.67;95412.66;4963730;28;20188;-78
2023/07/05 07:54:04;;;;;;;4.97;3.22;;;;;;;19.82;64.04;95412.66;4978534;28;20267;-78
2023/07/05 07:56:29;;;;;;;3.70;3.30;;;;;;;20.89;60.65;95417.16;4951010;28;20776;-78
2023/07/05 07:58:56;;;;;;;3.65;3.15;;;;;;;20.62;62.10;95416.53;4967643;28;20283;-78
2023/07/05 08:01:25;;;;;;;5.00;3.40;;;;;;;20.71;60.69;95415.25;4969753;28;20565;-79
2023/07/05 08:03:51;;;;;;;4.30;3.67;;;;;;;20.55;61.42;95419.22;4970605;28;20686;-78
2023/07/05 08:06:17;;;;;;;4.82;3.78;;;;;;;20.77;59.50;95430.25;4957360;28;20224;-77
2023/07/05 08:08:43;;;;;;;4.70;3.53;;;;;;;21.03;58.39;95431.88;4976835;28;20196;-78
2023/07/05 08:11:09;;;;;;;3.88;3.47;;;;;;;21.05;58.81;95448.31;4984719;28;20185;-77
2023/07/05 08:13:35;;;;;;;5.15;3.28;;;;;;;20.71;60.46;95449.56;4967584;28;20661;-77
2023/07/05 08:16:01;;;;;;;4.57;3.55;;;;;;;20.75;60.05;95455.22;4966884;28;20588;-77
2023/07/05 08:18:27;;;;;;;5.03;3.75;;;;;;;20.34;60.72;95448.53;4985082;28;20623;-77
2023/07/05 08:20:53;;;;;;;4.50;3.90;;;;;;;20.15;61.17;95462.63;4968064;28;20280;-77
2023/07/05 08:23:18;;;;;;;5.97;3.78;;;;;;;19.76;61.59;95467.78;4942959;28;20189;-78
2023/07/05 08:25:45;;;;;;;4.60;3.42;;;;;;;19.44;63.29;95463.38;4976898;28;20212;-77
2023/07/05 08:28:12;;;;;;;3.65;3.28;;;;;;;19.71;63.11;95466.81;4959499;28;20181;-77
2023/07/05 08:30:38;;;;;;;7.97;4.90;;;;;;;20.33;60.63;95471.44;4958915;28;20268;-77
2023/07/05 08:33:04;;;;;;;10.75;4.50;;;;;;;19.86;61.11;95467.34;4970855;28;20554;-77
2023/07/05 08:35:30;;;;;;;7.95;4.40;;;;;;;19.97;60.43;95471.19;4963946;28;20209;-76
2023/07/05 08:37:56;;;;;;;7.50;4.32;;;;;;;20.00;59.70;95468.13;4968430;28;20237;-77
2023/07/05 08:40:21;;;;;;;5.47;3.80;;;;;;;20.04;58.46;95478.03;4966735;28;20280;-78
2023/07/05 08:42:55;;;;;;;4.93;4.25;;;;;;;20.31;58.49;95480.56;4981558;28;20220;-78
2023/07/05 08:45:48;;;;;;;4.75;4.07;;;;;;;20.24;59.67;95480.63;4963798;28;20208;-78
2023/07/05 08:48:15;;;;;;;5.22;3.88;;;;;;;20.80;57.70;95481.78;4948077;28;20196;-80
2023/07/05 08:50:43;;;;;;;6.78;4.50;;;;;;;20.79;56.81;95485.44;4972767;28;20606;-79
2023/07/05 08:53:14;;;;;;;7.13;4.53;;;;;;;20.49;58.23;95490.47;4953326;28;20554;-78
2023/07/05 08:55:47;;;;;;;7.30;4.25;;;;;;;20.83;57.94;95489.25;4965412;28;20208;-77
2023/07/05 08:58:19;;;;;;;6.28;4.43;;;;;;;21.59;56.12;95497.06;4977884;28;20240;-77
2023/07/05 09:01:04;;;;;;;5.45;4.35;;;;;;;21.46;54.67;95503.25;4967090;28;20180;-77
2023/07/05 09:03:30;;;;;;;6.80;4.25;;;;;;;20.97;55.75;95497.91;4985020;28;20192;-77
2023/07/05 09:06:14;;;;;;;4.75;4.20;;;;;;;21.03;55.14;95513.72;4986247;28;20278;-74
2023/07/05 09:09:02;;;;;;;6.28;4.07;;;;;;;20.73;56.13;95507.41;4967514;28;20537;-77
2023/07/05 09:11:45;;;;;;;6.05;4.30;;;;;;;21.13;54.56;95516.69;4961040;28;20185;-77
2023/07/05 09:14:29;;;;;;;4.93;4.30;;;;;;;20.91;55.18;95520.69;4979743;28;20184;-78
2023/07/05 09:17:10;;;;;;;5.50;4.72;;;;;;;21.65;53.42;95516.53;4960590;28;20201;-77
2023/07/05 09:19:54;;;;;;;4.90;4.40;;;;;;;21.09;50.80;95526.06;4940905;28;20189;-77
2023/07/05 09:22:23;;;;;;;5.82;4.57;;;;;;;21.00;52.35;95519.41;4932579;28;20669;-78
2023/07/05 09:24:49;;;;;;;5.03;4.35;;;;;;;21.31;52.14;95526.56;4960736;28;20212;-78
2023/07/05 09:27:17;;;;;;;6.18;5.20;;;;;;;20.80;52.23;95521.38;4966037;28;20205;-78
2023/07/05 09:29:48;;;;;;;5.97;4.55;;;;;;;20.85;52.24;95518.91;4979154;28;20193;-78
2023/07/05 09:32:19;;;;;;;7.18;4.65;;;;;;;20.74;50.87;95533.56;4959065;28;20191;-77
2023/07/05 09:34:51;;;;;;;5.80;4.90;;;;;;;20.85;49.67;95532.13;4971218;28;20223;-78
2023/07/05 09:37:20;;;;;;;6.18;4.47;;;;;;;20.78;49.36;95526.88;4961550;28;20185;-78
2023/07/05 09:39:55;;;;;;;6.15;4.20;;;;;;;20.77;49.85;95530.53;4967937;28;20208;-77
2023/07/05 09:42:35;;;;;;;5.75;4.90;;;;;;;20.32;51.05;95527.03;4983882;28;20681;-78
2023/07/05 09:45:01;;;;;;;4.78;4.28;;;;;;;20.26;50.71;95539.22;4981565;28;20216;-76
2023/07/05 09:47:26;;;;;;;5.90;4.20;;;;;;;20.67;49.31;95537.25;4981909;28;20571;-77
2023/07/05 09:49:51;;;;;;;5.43;4.18;;;;;;;21.34;47.96;95543.78;4968552;28;20657;-78
2023/07/05 09:52:22;;;;;;;5.93;4.40;;;;;;;21.64;47.08;95543.94;4958602;28;20188;-77
2023/07/05 09:54:54;;;;;;;7.70;4.00;;;;;;;21.31;48.85;95542.41;4972892;28;20200;-78
2023/07/05 09:57:24;;;;;;;7.22;4.30;;;;;;;21.84;47.15;95541.16;4957870;28;20565;-77
2023/07/05 09:59:52;;;;;;;5.32;3.92;;;;;;;22.33;46.06;95551.63;4966618;28;20248;-77
2023/07/05 10:02:21;;;;;;;6.05;4.57;;;;;;;21.47;46.31;95554.28;4935656;28;20181;-78
2023/07/05 10:04:51;;;;;;;5.07;3.88;;;;;;;22.15;45.03;95546.34;4982809;28;20204;-77
2023/07/05 10:07:18;;;;;;;4.78;4.00;;;;;;;22.41;45.03;95537.31;4983896;28;20228;-77
2023/07/05 10:09:57;;;;;;;5.57;4.43;;;;;;;21.98;44.51;95551.38;4964706;28;20193;-80
2023/07/05 10:12:25;;;;;;;6.72;3.90;;;;;;;22.64;44.99;95549.06;4968785;28;20453;-77
2023/07/05 10:14:55;;;;;;;6.25;3.90;;;;;;;23.01;44.13;95550.63;4942737;28;20204;-77
2023/07/05 10:17:20;;;;;;;6.22;3.53;;;;;;;23.07;42.70;95564.81;4968776;28;20243;-77
2023/07/05 10:19:55;;;;;;;5.60;3.90;;;;;;;22.40;42.28;95559.50;4946410;28;20189;-77
2023/07/05 10:22:30;;;;;;;4.70;3.28;;;;;;;22.20;43.37;95565.03;4962629;28;20207;-83
2023/07/05 10:25:15;;;;;;;3.97;3.58;;;;;;;22.09;42.35;95564.94;4953613;28;20197;-87
2023/07/05 10:27:43;;;;;;;5.25;4.10;;;;;;;21.43;41.60;95574.19;4976659;28;20200;-82
2023/07/05 10:30:21;;;;;;;5.53;3.08;;;;;;;21.69;42.99;95575.84;4962923;28;20183;-82
2023/07/05 10:32:49;;;;;;;3.55;2.90;;;;;;;22.02;39.61;95588.78;4942261;28;20625;-82
2023/07/05 10:35:29;;;;;;;3.78;3.17;;;;;;;22.33;40.11;95580.75;4936018;28;20205;-83
2023/07/05 10:37:55;;;;;;;5.93;3.30;;;;;;;22.42;38.18;95583.09;4962359;28;20217;-85
2023/07/05 10:40:21;;;;;;;4.22;3.10;;;;;;;22.69;37.87;95573.00;4944681;28;20188;-81
2023/07/05 10:42:57;;;;;;;3.95;2.88;;;;;;;23.16;37.68;95576.72;4953182;28;20227;-84
2023/07/05 10:45:22;;;;;;;4.57;3.60;;;;;;;23.33;37.99;95582.19;4930730;29;20205;-79
2023/07/05 10:47:52;;;;;;;7.38;3.13;;;;;;;23.36;36.80;95577.22;4958928;28;20581;-77
2023/07/05 10:50:23;;;;;;;3.30;2.80;;;;;;;23.83;36.68;95580.00;4963277;28;20271;-79
2023/07/05 10:52:58;;;;;;;4.82;3.05;;;;;;;22.97;37.05;95578.59;4976344;28;20181;-79
2023/07/05 10:55:35;;;;;;;5.18;2.88;;;;;;;23.58;37.78;95577.50;4954884;28;20215;-78
2023/07/05 10:58:18;;;;;;;3.40;2.83;;;;;;;23.63;37.10;95576.84;4984037;28;20194;-83
2023/07/05 11:01:01;;;;;;;4.13;2.85;;;;;;;23.70;38.13;95577.56;4965612;28;20188;-87
2023/07/05 11:03:51;;;;;;;3.95;2.67;;;;;;;24.43;36.47;95571.00;4975922;28;20196;-85
2023/07/05 11:06:17;;;;;;;4.32;2.70;;;;;;;23.82;35.54;95573.06;4971869;28;20229;-85
2023/07/05 11:08:44;;;;;;;4.13;2.45;;;;;;;23.41;36.93;95572.06;4987003;28;20195;-84
2023/07/05 11:11:23;;;;;;;3.35;2.55;;;;;;;23.80;35.77;95575.16;4985197;28;20306;-84
2023/07/05 11:13:49;;;;;;;2.60;2.40;;;;;;;23.53;36.66;95572.09;4954507;28;20544;-83
2023/07/05 11:16:17;;;;;;;7.45;2.65;;;;;;;23.79;36.38;95570.88;4959766;28;20259;-86
2023/07/05 11:18:43;;;;;;;4.57;2.75;;;;;;;22.88;36.88;95558.75;4978088;28;20200;-85
2023/07/05 11:21:47;;;;;;;3.45;2.60;;;;;;;23.47;34.87;95562.38;4975761;28;20180;-85
2023/07/05 11:24:38;;;;;;;3.05;2.47;;;;;;;23.24;34.96;95565.00;4955264;28;20681;-83
2023/07/05 11:27:29;;;;;;;2.92;2.63;;;;;;;22.84;36.93;95560.19;4981389;28;20589;-83
2023/07/05 11:29:56;;;;;;;3.92;2.10;;;;;;;23.56;35.62;95573.47;4957008;28;20291;-85
2023/07/05 11:32:26;;;;;;;4.45;2.75;;;;;;;23.52;35.19;95574.97;4953817;28;20204;-83
2023/07/05 11:34:55;;;;;;;3.30;1.95;;;;;;;23.26;34.27;95569.03;4978260;28;20232;-85
2023/07/05 11:37:20;;;;;;;4.38;2.58;;;;;;;23.49;33.52;95575.41;4970562;28;20185;-88
2023/07/05 11:39:50;;;;;;;3.88;2.50;;;;;;;24.14;33.91;95570.91;4991552;28;20212;-86
2023/07/05 11:42:15;;;;;;;4.32;2.72;;;;;;;23.67;34.33;95580.66;4982656;28;20960;-85